createdAt,value
2018-03-27T00:00:20.950Z,976.66
2018-03-27T00:01:20.870Z,976.61
2018-03-27T00:02:20.789Z,976.60
2018-03-27T00:03:20.711Z,976.68
2018-03-27T00:04:20.624Z,976.67
2018-03-27T00:05:20.576Z,976.65
2018-03-27T00:06:20.461Z,976.66
2018-03-27T00:07:20.379Z,976.64
2018-03-27T00:08:20.312Z,976.67
2018-03-27T00:09:20.246Z,976.67
2018-03-27T00:10:20.134Z,976.67
2018-03-27T00:11:20.054Z,976.66
2018-03-27T00:12:19.972Z,976.68
2018-03-27T00:13:19.891Z,976.63
2018-03-27T00:14:19.809Z,976.65
2018-03-27T00:15:19.726Z,976.63
2018-03-27T00:16:19.651Z,976.66
2018-03-27T00:17:19.567Z,976.64
2018-03-27T00:18:19.483Z,976.63
2018-03-27T00:19:19.397Z,976.66
2018-03-27T00:20:19.320Z,976.64
2018-03-27T00:21:19.243Z,976.65
2018-03-27T00:22:19.156Z,976.69
2018-03-27T00:23:19.073Z,976.68
2018-03-27T00:24:18.994Z,976.69
2018-03-27T00:25:18.909Z,976.68
2018-03-27T00:26:18.829Z,976.71
2018-03-27T00:27:18.744Z,976.70
2018-03-27T00:28:18.674Z,976.71
2018-03-27T00:29:18.646Z,976.71
2018-03-27T00:30:18.500Z,976.70
2018-03-27T00:31:18.424Z,976.71
2018-03-27T00:32:18.338Z,976.71
2018-03-27T00:33:18.256Z,976.68
2018-03-27T00:34:18.172Z,976.66
2018-03-27T00:35:18.093Z,976.67
2018-03-27T00:36:18.010Z,976.67
2018-03-27T00:37:17.928Z,976.68
2018-03-27T00:38:17.848Z,976.67
2018-03-27T00:39:17.764Z,976.67
2018-03-27T00:40:17.683Z,976.66
2018-03-27T00:41:17.600Z,976.67
2018-03-27T00:42:17.541Z,976.68
2018-03-27T00:43:17.448Z,976.66
2018-03-27T00:44:17.357Z,976.63
2018-03-27T00:45:17.275Z,976.69
2018-03-27T00:46:17.192Z,976.70
2018-03-27T00:47:17.108Z,976.69
2018-03-27T00:48:17.030Z,976.69
2018-03-27T00:49:16.946Z,976.71
2018-03-27T00:50:16.864Z,976.69
2018-03-27T00:51:16.786Z,976.68
2018-03-27T00:52:16.698Z,976.68
2018-03-27T00:53:16.624Z,976.65
2018-03-27T00:54:16.536Z,976.62
2018-03-27T00:55:16.454Z,976.61
2018-03-27T00:56:16.475Z,976.62
2018-03-27T00:57:16.292Z,976.65
2018-03-27T00:58:16.221Z,976.66
2018-03-27T00:59:16.130Z,976.68
2018-03-27T01:00:16.047Z,976.63
2018-03-27T01:01:15.989Z,976.64
2018-03-27T01:02:15.884Z,976.64
2018-03-27T01:03:15.801Z,976.67
2018-03-27T01:04:15.719Z,976.69
2018-03-27T01:05:15.639Z,976.69
2018-03-27T01:06:15.564Z,976.71
2018-03-27T01:07:15.483Z,976.69
2018-03-27T01:08:15.395Z,976.70
2018-03-27T01:09:15.317Z,976.71
2018-03-27T01:10:15.229Z,976.68
2018-03-27T01:11:15.147Z,976.70
2018-03-27T01:12:15.063Z,976.63
2018-03-27T01:13:14.986Z,976.64
2018-03-27T01:14:14.900Z,976.63
2018-03-27T01:15:14.821Z,976.63
2018-03-27T01:16:14.738Z,976.62
2018-03-27T01:17:14.685Z,976.61
2018-03-27T01:18:14.577Z,976.61
2018-03-27T01:19:14.491Z,976.60
2018-03-27T01:20:14.410Z,976.60
2018-03-27T01:21:14.330Z,976.58
2018-03-27T01:22:14.246Z,976.59
2018-03-27T01:23:14.161Z,976.60
2018-03-27T01:24:14.080Z,976.61
2018-03-27T01:25:13.999Z,976.63
2018-03-27T01:26:13.920Z,976.62
2018-03-27T01:27:13.835Z,976.58
2018-03-27T01:28:13.758Z,976.58
2018-03-27T01:29:13.671Z,976.60
2018-03-27T01:30:13.597Z,976.59
2018-03-27T01:31:13.541Z,976.59
2018-03-27T01:32:13.426Z,976.58
2018-03-27T01:33:13.357Z,976.61
2018-03-27T01:34:13.264Z,976.63
2018-03-27T01:35:13.186Z,976.58
2018-03-27T01:36:13.099Z,976.58
2018-03-27T01:37:13.018Z,976.59
2018-03-27T01:38:12.978Z,976.57
2018-03-27T01:39:12.857Z,976.59
2018-03-27T01:40:12.984Z,976.55
2018-03-27T01:41:12.690Z,976.58
2018-03-27T01:42:12.612Z,976.56
2018-03-27T01:43:12.529Z,976.54
2018-03-27T01:44:12.442Z,976.53
2018-03-27T01:45:12.365Z,976.54
2018-03-27T01:46:12.282Z,976.52
2018-03-27T01:47:12.198Z,976.53
2018-03-27T01:48:12.118Z,976.54
2018-03-27T01:49:12.035Z,976.48
2018-03-27T01:50:11.953Z,976.50
2018-03-27T01:51:11.870Z,976.51
2018-03-27T01:52:11.790Z,976.51
2018-03-27T01:53:11.709Z,976.53
2018-03-27T01:54:11.626Z,976.49
2018-03-27T01:55:11.543Z,976.52
2018-03-27T01:56:11.464Z,976.53
2018-03-27T01:57:11.379Z,976.51
2018-03-27T01:58:11.297Z,976.51
2018-03-27T01:59:11.217Z,976.53
2018-03-27T02:00:11.134Z,976.48
2018-03-27T02:01:11.053Z,976.52
2018-03-27T02:02:10.968Z,976.49
2018-03-27T02:03:10.889Z,976.51
2018-03-27T02:04:10.807Z,976.49
2018-03-27T02:05:10.755Z,976.49
2018-03-27T02:06:10.643Z,976.49
2018-03-27T02:07:10.561Z,976.47
2018-03-27T02:08:10.479Z,976.43
2018-03-27T02:09:10.396Z,976.47
2018-03-27T02:10:10.315Z,976.44
2018-03-27T02:11:10.238Z,976.48
2018-03-27T02:12:10.153Z,976.42
2018-03-27T02:13:10.076Z,976.43
2018-03-27T02:14:09.989Z,976.42
2018-03-27T02:15:09.905Z,976.47
2018-03-27T02:16:09.828Z,976.51
2018-03-27T02:17:09.741Z,976.49
2018-03-27T02:18:09.658Z,976.46
2018-03-27T02:19:09.576Z,976.49
2018-03-27T02:20:09.505Z,976.50
2018-03-27T02:21:09.425Z,976.49
2018-03-27T02:22:09.330Z,976.45
2018-03-27T02:23:09.249Z,976.49
2018-03-27T02:24:09.168Z,976.49
2018-03-27T02:25:09.100Z,976.46
2018-03-27T02:26:09.002Z,976.45
2018-03-27T02:27:08.969Z,976.44
2018-03-27T02:28:08.841Z,976.48
2018-03-27T02:29:08.760Z,976.40
2018-03-27T02:30:08.676Z,976.42
2018-03-27T02:31:08.593Z,976.39
2018-03-27T02:32:08.512Z,976.42
2018-03-27T02:33:08.430Z,976.43
2018-03-27T02:34:08.350Z,976.47
2018-03-27T02:35:08.264Z,976.47
2018-03-27T02:36:08.183Z,976.45
2018-03-27T02:37:08.102Z,976.41
2018-03-27T02:38:08.019Z,976.44
2018-03-27T02:39:07.933Z,976.40
2018-03-27T02:40:07.874Z,976.40
2018-03-27T02:41:07.782Z,976.43
2018-03-27T02:42:07.690Z,976.40
2018-03-27T02:43:07.612Z,976.41
2018-03-27T02:44:07.536Z,976.38
2018-03-27T02:45:07.443Z,976.38
2018-03-27T02:46:07.397Z,976.37
2018-03-27T02:47:07.280Z,976.40
2018-03-27T02:48:07.196Z,976.39
2018-03-27T02:49:07.119Z,976.37
2018-03-27T02:50:07.050Z,976.40
2018-03-27T02:51:06.956Z,976.39
2018-03-27T02:52:06.866Z,976.41
2018-03-27T02:53:06.790Z,976.43
2018-03-27T02:54:06.712Z,976.39
2018-03-27T02:55:06.622Z,976.39
2018-03-27T02:56:06.541Z,976.42
2018-03-27T02:57:06.456Z,976.41
2018-03-27T02:58:06.376Z,976.41
2018-03-27T02:59:06.293Z,976.40
2018-03-27T03:00:06.208Z,976.36
2018-03-27T03:01:06.130Z,976.44
2018-03-27T03:02:06.043Z,976.42
2018-03-27T03:03:05.965Z,976.43
2018-03-27T03:04:05.890Z,976.42
2018-03-27T03:05:05.831Z,976.38
2018-03-27T03:06:05.717Z,976.40
2018-03-27T03:07:05.634Z,976.41
2018-03-27T03:08:05.553Z,976.42
2018-03-27T03:09:05.468Z,976.45
2018-03-27T03:10:05.387Z,976.45
2018-03-27T03:11:05.307Z,976.45
2018-03-27T03:12:05.225Z,976.46
2018-03-27T03:13:05.169Z,976.47
2018-03-27T03:14:05.062Z,976.49
2018-03-27T03:15:04.975Z,976.48
2018-03-27T03:16:04.894Z,976.50
2018-03-27T03:17:04.812Z,976.51
2018-03-27T03:18:04.731Z,976.53
2018-03-27T03:19:04.684Z,976.54
2018-03-27T03:20:04.563Z,976.53
2018-03-27T03:21:04.481Z,976.51
2018-03-27T03:22:04.400Z,976.55
2018-03-27T03:23:04.314Z,976.52
2018-03-27T03:24:04.330Z,976.55
2018-03-27T03:25:04.155Z,976.55
2018-03-27T03:26:04.076Z,976.55
2018-03-27T03:27:03.993Z,976.52
2018-03-27T03:28:03.907Z,976.53
2018-03-27T03:29:03.839Z,976.54
2018-03-27T03:30:03.743Z,976.54
2018-03-27T03:31:03.660Z,976.53
2018-03-27T03:32:03.574Z,976.52
2018-03-27T03:33:03.493Z,976.55
2018-03-27T03:34:03.410Z,976.51
2018-03-27T03:35:03.333Z,976.50
2018-03-27T03:36:03.255Z,976.51
2018-03-27T03:37:03.165Z,976.46
2018-03-27T03:38:03.082Z,976.50
2018-03-27T03:39:03.004Z,976.51
2018-03-27T03:40:02.918Z,976.47
2018-03-27T03:41:02.835Z,976.49
2018-03-27T03:42:02.754Z,976.54
2018-03-27T03:43:02.767Z,976.59
2018-03-27T03:44:02.585Z,976.58
2018-03-27T03:45:02.507Z,976.61
2018-03-27T03:46:02.423Z,976.56
2018-03-27T03:47:02.339Z,976.58
2018-03-27T03:48:02.264Z,976.56
2018-03-27T03:49:02.179Z,976.58
2018-03-27T03:50:02.094Z,976.57
2018-03-27T03:51:02.018Z,976.54
2018-03-27T03:52:01.934Z,976.52
2018-03-27T03:53:01.877Z,976.54
2018-03-27T03:54:01.765Z,976.55
2018-03-27T03:55:01.688Z,976.56
2018-03-27T03:56:01.605Z,976.56
2018-03-27T03:57:01.521Z,976.57
2018-03-27T03:58:01.433Z,976.55
2018-03-27T03:59:01.354Z,976.55
2018-03-27T04:00:01.273Z,976.57
2018-03-27T04:01:01.188Z,976.53
2018-03-27T04:02:01.104Z,976.61
2018-03-27T04:03:01.024Z,976.61
2018-03-27T04:04:00.949Z,976.60
2018-03-27T04:05:00.873Z,976.63
2018-03-27T04:06:00.774Z,976.60
2018-03-27T04:07:00.693Z,976.63
2018-03-27T04:08:00.611Z,976.64
2018-03-27T04:09:00.531Z,976.64
2018-03-27T04:10:00.445Z,976.66
2018-03-27T04:11:00.364Z,976.62
2018-03-27T04:12:00.292Z,976.67
2018-03-27T04:13:00.206Z,976.66
2018-03-27T04:14:00.145Z,976.66
2018-03-27T04:15:00.035Z,976.65
2018-03-27T04:15:59.957Z,976.69
2018-03-27T04:16:59.872Z,976.70
2018-03-27T04:17:59.789Z,976.69
2018-03-27T04:18:59.704Z,976.69
2018-03-27T04:19:59.628Z,976.66
2018-03-27T04:20:59.593Z,976.65
2018-03-27T04:21:59.458Z,976.66
2018-03-27T04:22:59.379Z,976.66
2018-03-27T04:23:59.295Z,976.65
2018-03-27T04:24:59.218Z,976.64
2018-03-27T04:25:59.130Z,976.66
2018-03-27T04:26:59.055Z,976.69
2018-03-27T04:27:58.970Z,976.66
2018-03-27T04:28:58.884Z,976.68
2018-03-27T04:29:58.803Z,976.69
2018-03-27T04:30:58.716Z,976.65
2018-03-27T04:31:58.637Z,976.68
2018-03-27T04:32:58.555Z,976.69
2018-03-27T04:33:58.472Z,976.67
2018-03-27T04:34:58.392Z,976.71
2018-03-27T04:35:58.306Z,976.71
2018-03-27T04:36:58.225Z,976.72
2018-03-27T04:37:58.145Z,976.73
2018-03-27T04:38:58.062Z,976.71
2018-03-27T04:39:57.982Z,976.73
2018-03-27T04:40:57.896Z,976.73
2018-03-27T04:41:57.814Z,976.75
2018-03-27T04:42:57.733Z,976.72
2018-03-27T04:43:57.653Z,976.72
2018-03-27T04:44:57.571Z,976.71
2018-03-27T04:45:57.486Z,976.77
2018-03-27T04:46:57.408Z,976.67
2018-03-27T04:47:57.376Z,976.68
2018-03-27T04:48:57.241Z,976.65
2018-03-27T04:49:57.158Z,976.66
2018-03-27T04:50:57.097Z,976.68
2018-03-27T04:51:56.994Z,976.65
2018-03-27T04:52:56.912Z,976.66
2018-03-27T04:53:56.827Z,976.65
2018-03-27T04:54:56.746Z,976.68
2018-03-27T04:55:56.663Z,976.67
2018-03-27T04:56:56.588Z,976.63
2018-03-27T04:57:56.498Z,976.63
2018-03-27T04:58:56.424Z,976.69
2018-03-27T04:59:56.340Z,976.68
2018-03-27T05:00:56.254Z,976.69
2018-03-27T05:01:56.173Z,976.69
2018-03-27T05:02:56.090Z,976.72
2018-03-27T05:03:56.005Z,976.70
2018-03-27T05:04:55.925Z,976.68
2018-03-27T05:05:55.849Z,976.69
2018-03-27T05:06:55.759Z,976.71
2018-03-27T05:07:55.677Z,976.70
2018-03-27T05:08:55.595Z,976.69
2018-03-27T05:09:55.514Z,976.70
2018-03-27T05:10:55.430Z,976.68
2018-03-27T05:11:55.348Z,976.71
2018-03-27T05:12:55.269Z,976.71
2018-03-27T05:13:55.185Z,976.76
2018-03-27T05:14:55.112Z,976.72
2018-03-27T05:15:55.019Z,976.72
2018-03-27T05:16:54.938Z,976.74
2018-03-27T05:17:54.859Z,976.71
2018-03-27T05:18:54.770Z,976.71
2018-03-27T05:19:54.694Z,976.68
2018-03-27T05:20:54.607Z,976.68
2018-03-27T05:21:54.526Z,976.71
2018-03-27T05:22:54.444Z,976.70
2018-03-27T05:23:54.363Z,976.71
2018-03-27T05:24:54.292Z,976.72
2018-03-27T05:25:54.214Z,976.74
2018-03-27T05:26:54.114Z,976.71
2018-03-27T05:27:54.031Z,976.68
2018-03-27T05:28:54.040Z,976.67
2018-03-27T05:29:53.866Z,976.68
2018-03-27T05:30:53.786Z,976.65
2018-03-27T05:31:53.970Z,976.61
2018-03-27T05:32:53.642Z,976.55
2018-03-27T05:33:53.537Z,976.58
2018-03-27T05:34:53.457Z,976.59
2018-03-27T05:35:53.376Z,976.55
2018-03-27T05:36:53.366Z,976.56
2018-03-27T05:37:53.209Z,976.56
2018-03-27T05:38:53.128Z,976.57
2018-03-27T05:39:53.046Z,976.57
2018-03-27T05:40:52.962Z,976.58
2018-03-27T05:41:52.878Z,976.61
2018-03-27T05:42:52.797Z,976.63
2018-03-27T05:43:52.714Z,976.65
2018-03-27T05:44:52.635Z,976.67
2018-03-27T05:45:52.548Z,976.64
2018-03-27T05:46:52.464Z,976.65
2018-03-27T05:47:52.383Z,976.65
2018-03-27T05:48:52.302Z,976.68
2018-03-27T05:49:52.220Z,976.67
2018-03-27T05:50:52.136Z,976.69
2018-03-27T05:51:52.078Z,976.69
2018-03-27T05:52:51.971Z,976.68
2018-03-27T05:53:51.886Z,976.68
2018-03-27T05:54:51.804Z,976.70
2018-03-27T05:55:51.779Z,976.68
2018-03-27T05:56:51.639Z,976.71
2018-03-27T05:57:51.559Z,976.69
2018-03-27T05:58:51.473Z,976.75
2018-03-27T05:59:51.390Z,976.76
2018-03-27T06:00:51.325Z,976.78
2018-03-27T06:01:51.224Z,976.77
2018-03-27T06:02:51.145Z,976.77
2018-03-27T06:03:51.062Z,976.80
2018-03-27T06:04:50.977Z,976.80
2018-03-27T06:05:50.898Z,976.81
2018-03-27T06:06:50.817Z,976.77
2018-03-27T06:07:50.736Z,976.80
2018-03-27T06:08:50.653Z,976.84
2018-03-27T06:09:50.565Z,976.88
2018-03-27T06:10:50.481Z,976.85
2018-03-27T06:11:50.402Z,976.85
2018-03-27T06:12:50.326Z,976.88
2018-03-27T06:13:50.303Z,976.85
2018-03-27T06:14:50.158Z,976.89
2018-03-27T06:15:50.069Z,976.91
2018-03-27T06:16:49.989Z,976.89
2018-03-27T06:17:49.905Z,976.90
2018-03-27T06:18:49.823Z,976.92
2018-03-27T06:19:49.740Z,976.88
2018-03-27T06:20:49.670Z,976.90
2018-03-27T06:21:49.578Z,976.92
2018-03-27T06:22:49.524Z,976.90
2018-03-27T06:23:49.411Z,976.92
2018-03-27T06:24:49.329Z,976.94
2018-03-27T06:25:49.262Z,976.96
2018-03-27T06:26:49.166Z,976.93
2018-03-27T06:27:49.082Z,976.98
2018-03-27T06:28:49.013Z,976.97
2018-03-27T06:29:48.915Z,976.95
2018-03-27T06:30:48.836Z,976.98
2018-03-27T06:31:48.753Z,976.96
2018-03-27T06:32:48.672Z,976.96
2018-03-27T06:33:48.630Z,976.98
2018-03-27T06:34:48.509Z,976.96
2018-03-27T06:35:48.432Z,976.98
2018-03-27T06:36:48.340Z,977.01
2018-03-27T06:37:48.262Z,977.03
2018-03-27T06:38:48.176Z,976.99
2018-03-27T06:39:48.097Z,977.00
2018-03-27T06:40:48.014Z,977.01
2018-03-27T06:41:47.932Z,977.05
2018-03-27T06:42:47.855Z,977.03
2018-03-27T06:43:47.764Z,977.04
2018-03-27T06:44:47.682Z,977.01
2018-03-27T06:45:47.603Z,977.03
2018-03-27T06:46:47.574Z,977.06
2018-03-27T06:47:47.448Z,977.00
2018-03-27T06:48:47.356Z,977.05
2018-03-27T06:49:47.276Z,977.02
2018-03-27T06:50:47.191Z,977.01
2018-03-27T06:51:47.109Z,977.01
2018-03-27T06:52:47.057Z,977.02
2018-03-27T06:53:46.947Z,977.01
2018-03-27T06:54:46.868Z,976.99
2018-03-27T06:55:46.781Z,976.99
2018-03-27T06:56:46.698Z,977.02
2018-03-27T06:57:46.614Z,977.01
2018-03-27T06:58:46.536Z,976.99
2018-03-27T06:59:46.453Z,977.03
2018-03-27T07:00:46.370Z,977.02
2018-03-27T07:01:46.289Z,977.04
2018-03-27T07:02:46.206Z,977.05
2018-03-27T07:03:46.136Z,977.07
2018-03-27T07:04:46.044Z,977.05
2018-03-27T07:05:45.967Z,977.07
2018-03-27T07:06:45.897Z,977.06
2018-03-27T07:07:45.817Z,977.06
2018-03-27T07:08:45.719Z,977.06
2018-03-27T07:09:45.650Z,977.03
2018-03-27T07:10:45.601Z,977.05
2018-03-27T07:11:45.465Z,977.05
2018-03-27T07:12:45.394Z,977.07
2018-03-27T07:13:45.337Z,977.08
2018-03-27T07:14:45.222Z,977.11
2018-03-27T07:15:45.152Z,977.09
2018-03-27T07:16:45.057Z,977.10
2018-03-27T07:17:45.003Z,977.12
2018-03-27T07:18:44.893Z,977.11
2018-03-27T07:19:44.836Z,977.14
2018-03-27T07:20:44.762Z,977.12
2018-03-27T07:21:44.643Z,977.12
2018-03-27T07:22:44.574Z,977.14
2018-03-27T07:23:44.487Z,977.11
2018-03-27T07:24:44.398Z,977.18
2018-03-27T07:25:44.315Z,977.13
2018-03-27T07:26:44.233Z,977.16
2018-03-27T07:27:44.150Z,977.16
2018-03-27T07:28:44.068Z,977.11
2018-03-27T07:29:43.986Z,977.15
2018-03-27T07:30:43.904Z,977.13
2018-03-27T07:31:43.822Z,977.15
2018-03-27T07:32:43.768Z,977.14
2018-03-27T07:33:43.655Z,977.12
2018-03-27T07:34:43.574Z,977.15
2018-03-27T07:35:43.490Z,977.15
2018-03-27T07:36:43.410Z,977.11
2018-03-27T07:37:43.321Z,977.14
2018-03-27T07:38:43.246Z,977.15
2018-03-27T07:39:43.184Z,977.20
2018-03-27T07:40:43.079Z,977.18
2018-03-27T07:41:42.991Z,977.25
2018-03-27T07:42:42.916Z,977.22
2018-03-27T07:43:42.829Z,977.26
2018-03-27T07:44:42.804Z,977.24
2018-03-27T07:45:42.677Z,977.25
2018-03-27T07:46:42.584Z,977.24
2018-03-27T07:47:42.498Z,977.23
2018-03-27T07:48:42.441Z,977.20
2018-03-27T07:49:42.331Z,977.21
2018-03-27T07:50:42.251Z,977.21
2018-03-27T07:51:42.167Z,977.19
2018-03-27T07:52:42.091Z,977.17
2018-03-27T07:53:42.030Z,977.18
2018-03-27T07:54:41.922Z,977.16
2018-03-27T07:55:41.837Z,977.17
2018-03-27T07:56:41.755Z,977.20
2018-03-27T07:57:42.445Z,977.17
2018-03-27T07:58:41.590Z,977.31
2018-03-27T07:59:41.508Z,977.22
2018-03-27T08:00:41.425Z,977.29
2018-03-27T08:01:41.340Z,977.27
2018-03-27T08:02:41.264Z,977.23
2018-03-27T08:03:41.196Z,977.20
2018-03-27T08:04:41.096Z,977.20
2018-03-27T08:05:41.014Z,977.22
2018-03-27T08:06:40.930Z,977.25
2018-03-27T08:07:40.847Z,977.22
2018-03-27T08:08:40.766Z,977.18
2018-03-27T08:09:40.680Z,977.22
2018-03-27T08:10:40.599Z,977.17
2018-03-27T08:11:40.516Z,977.18
2018-03-27T08:12:40.436Z,977.15
2018-03-27T08:13:40.353Z,977.16
2018-03-27T08:14:40.268Z,977.19
2018-03-27T08:15:40.186Z,977.21
2018-03-27T08:16:40.105Z,977.14
2018-03-27T08:17:40.021Z,977.15
2018-03-27T08:18:39.940Z,977.16
2018-03-27T08:19:39.854Z,977.12
2018-03-27T08:20:39.772Z,977.14
2018-03-27T08:21:39.691Z,977.12
2018-03-27T08:22:39.609Z,977.14
2018-03-27T08:23:39.549Z,977.11
2018-03-27T08:24:39.443Z,977.16
2018-03-27T08:25:39.361Z,977.22
2018-03-27T08:26:39.282Z,977.11
2018-03-27T08:27:39.198Z,977.09
2018-03-27T08:28:39.132Z,977.08
2018-03-27T08:29:39.070Z,977.09
2018-03-27T08:30:38.953Z,977.02
2018-03-27T08:31:38.883Z,976.98
2018-03-27T08:32:38.786Z,977.01
2018-03-27T08:33:38.706Z,977.00
2018-03-27T08:34:40.991Z,977.00
2018-03-27T08:35:38.576Z,977.04
2018-03-27T08:36:38.460Z,977.05
2018-03-27T08:37:38.377Z,977.07
2018-03-27T08:38:38.298Z,977.12
2018-03-27T08:39:38.214Z,977.12
2018-03-27T08:40:38.134Z,977.11
2018-03-27T08:41:38.052Z,977.13
2018-03-27T08:42:37.969Z,977.08
2018-03-27T08:43:37.899Z,977.13
2018-03-27T08:44:37.885Z,977.17
2018-03-27T08:45:37.723Z,977.20
2018-03-27T08:46:37.645Z,977.17
2018-03-27T08:47:37.605Z,977.16
2018-03-27T08:48:37.502Z,977.20
2018-03-27T08:49:37.398Z,977.16
2018-03-27T08:50:37.316Z,977.19
2018-03-27T08:51:37.235Z,977.17
2018-03-27T08:52:37.158Z,977.17
2018-03-27T08:53:37.082Z,977.18
2018-03-27T08:54:36.993Z,977.16
2018-03-27T08:55:36.920Z,977.19
2018-03-27T08:56:36.828Z,977.20
2018-03-27T08:57:36.749Z,977.20
2018-03-27T08:58:36.668Z,977.28
2018-03-27T08:59:36.586Z,977.29
2018-03-27T09:00:36.538Z,977.34
2018-03-27T09:01:36.421Z,977.32
2018-03-27T09:02:36.341Z,977.36
2018-03-27T09:03:36.322Z,977.31
2018-03-27T09:04:36.179Z,977.32
2018-03-27T09:05:36.106Z,977.29
2018-03-27T09:06:36.017Z,977.31
2018-03-27T09:07:35.935Z,977.29
2018-03-27T09:08:35.853Z,977.32
2018-03-27T09:09:35.772Z,977.34
2018-03-27T09:10:35.696Z,977.31
2018-03-27T09:11:35.610Z,977.33
2018-03-27T09:12:35.533Z,977.33
2018-03-27T09:13:35.462Z,977.29
2018-03-27T09:14:35.368Z,977.29
2018-03-27T09:15:35.289Z,977.30
2018-03-27T09:16:35.205Z,977.32
2018-03-27T09:17:35.123Z,977.30
2018-03-27T09:18:35.043Z,977.29
2018-03-27T09:19:34.964Z,977.32
2018-03-27T09:20:34.960Z,977.27
2018-03-27T09:21:34.800Z,977.31
2018-03-27T09:22:34.721Z,977.28
2018-03-27T09:23:34.641Z,977.27
2018-03-27T09:24:34.565Z,977.28
2018-03-27T09:25:34.479Z,977.29
2018-03-27T09:26:34.399Z,977.28
2018-03-27T09:27:34.321Z,977.29
2018-03-27T09:28:34.283Z,977.26
2018-03-27T09:29:34.157Z,977.23
2018-03-27T09:30:34.107Z,977.25
2018-03-27T09:31:34.006Z,977.21
2018-03-27T09:32:33.916Z,977.23
2018-03-27T09:33:33.831Z,977.27
2018-03-27T09:34:33.756Z,977.25
2018-03-27T09:35:33.675Z,977.25
2018-03-27T09:36:33.591Z,977.26
2018-03-27T09:37:33.511Z,977.29
2018-03-27T09:38:33.433Z,977.27
2018-03-27T09:39:33.349Z,977.30
2018-03-27T09:40:33.269Z,977.27
2018-03-27T09:41:33.188Z,977.29
2018-03-27T09:42:33.109Z,977.25
2018-03-27T09:43:33.029Z,977.21
2018-03-27T09:44:32.953Z,977.24
2018-03-27T09:45:32.927Z,977.21
2018-03-27T09:46:32.787Z,977.21
2018-03-27T09:47:32.706Z,977.19
2018-03-27T09:48:32.626Z,977.17
2018-03-27T09:49:32.545Z,977.12
2018-03-27T09:52:14.971Z,977.09
2018-03-27T09:53:14.837Z,977.04
2018-03-27T09:55:18.648Z,977.03
2018-03-27T09:56:18.577Z,977.07
2018-03-27T09:58:22.424Z,977.05
2018-03-27T09:59:22.293Z,977.08
2018-03-27T10:01:26.100Z,977.08
2018-03-27T10:02:26.017Z,977.10
2018-03-27T10:04:29.889Z,977.09
2018-03-27T10:05:29.752Z,977.08
2018-03-27T10:07:22.504Z,977.12
2018-03-27T10:08:22.419Z,977.10
2018-03-27T10:10:26.294Z,976.98
2018-03-27T10:11:26.158Z,977.00
2018-03-27T10:12:26.098Z,976.99
2018-03-27T10:13:25.995Z,976.97
2018-03-27T10:14:25.927Z,976.98
2018-03-27T10:15:25.834Z,976.98
2018-03-27T10:16:25.755Z,976.98
2018-03-27T10:17:25.681Z,976.95
2018-03-27T10:18:25.597Z,976.90
2018-03-27T10:19:25.517Z,976.88
2018-03-27T10:20:25.463Z,976.84
2018-03-27T10:21:25.358Z,976.84
2018-03-27T10:22:25.285Z,976.87
2018-03-27T10:23:25.226Z,976.86
2018-03-27T10:24:25.134Z,976.86
2018-03-27T10:25:25.052Z,976.86
2018-03-27T10:26:24.976Z,976.83
2018-03-27T10:27:24.992Z,976.84
2018-03-27T10:28:24.802Z,976.85
2018-03-27T10:29:24.761Z,976.86
2018-03-27T10:30:24.700Z,976.81
2018-03-27T10:31:24.599Z,976.82
2018-03-27T10:32:24.669Z,976.81
2018-03-27T10:33:24.427Z,976.85
2018-03-27T10:34:24.344Z,976.83
2018-03-27T10:35:24.279Z,976.82
2018-03-27T10:36:24.177Z,976.78
2018-03-27T10:37:24.149Z,976.77
2018-03-27T10:38:24.025Z,976.76
2018-03-27T10:39:23.932Z,976.78
2018-03-27T10:40:23.875Z,976.78
2018-03-27T10:41:23.798Z,976.73
2018-03-27T10:42:23.720Z,976.77
2018-03-27T10:43:23.623Z,976.75
2018-03-27T10:44:23.538Z,976.73
2018-03-27T10:45:23.513Z,976.71
2018-03-27T10:46:23.381Z,976.75
2018-03-27T10:47:23.302Z,976.75
2018-03-27T10:48:23.223Z,976.69
2018-03-27T10:49:23.147Z,976.61
2018-03-27T10:50:23.071Z,976.65
2018-03-27T10:51:22.988Z,976.59
2018-03-27T10:52:22.908Z,976.66
2018-03-27T10:53:22.833Z,976.63
2018-03-27T10:54:22.755Z,976.61
2018-03-27T10:55:22.727Z,976.54
2018-03-27T10:56:22.600Z,976.55
2018-03-27T10:57:22.519Z,976.55
2018-03-27T10:58:22.442Z,976.53
2018-03-27T10:59:22.361Z,976.44
2018-03-27T11:00:22.282Z,976.42
2018-03-27T11:01:22.206Z,976.42
2018-03-27T11:02:22.125Z,976.38
2018-03-27T11:03:22.061Z,976.36
2018-03-27T11:04:21.971Z,976.38
2018-03-27T11:05:21.891Z,976.34
2018-03-27T11:06:21.827Z,976.39
2018-03-27T11:07:21.736Z,976.31
2018-03-27T11:08:21.657Z,976.32
2018-03-27T11:09:21.582Z,976.27
2018-03-27T11:10:21.501Z,976.27
2018-03-27T11:11:21.424Z,976.31
2018-03-27T11:12:21.343Z,976.35
2018-03-27T11:13:21.268Z,976.30
2018-03-27T11:14:21.189Z,976.28
2018-03-27T11:15:21.115Z,976.25
2018-03-27T11:16:21.032Z,976.21
2018-03-27T11:17:20.956Z,976.25
2018-03-27T11:18:20.880Z,976.18
2018-03-27T11:19:20.799Z,976.24
2018-03-27T11:20:20.721Z,976.13
2018-03-27T11:21:20.645Z,976.13
2018-03-27T11:22:20.566Z,976.19
2018-03-27T11:23:20.498Z,976.13
2018-03-27T11:24:20.410Z,976.15
2018-03-27T11:25:20.333Z,976.15
2018-03-27T11:26:20.256Z,976.22
2018-03-27T11:27:20.176Z,976.15
2018-03-27T11:28:20.100Z,976.21
2018-03-27T11:29:20.030Z,976.07
2018-03-27T11:30:19.945Z,976.08
2018-03-27T11:31:19.874Z,976.07
2018-03-27T11:32:19.788Z,976.17
2018-03-27T11:33:19.715Z,976.08
2018-03-27T11:34:19.636Z,976.04
2018-03-27T11:35:19.561Z,976.06
2018-03-27T11:36:19.483Z,976.05
2018-03-27T11:37:19.404Z,976.04
2018-03-27T11:38:19.348Z,976.03
2018-03-27T11:39:19.250Z,976.09
2018-03-27T11:40:19.174Z,976.06
2018-03-27T11:41:19.129Z,975.99
2018-03-27T11:42:19.036Z,976.05
2018-03-27T11:43:18.948Z,976.04
2018-03-27T11:44:18.866Z,975.99
2018-03-27T11:45:18.792Z,976.01
2018-03-27T11:46:18.718Z,976.13
2018-03-27T11:47:18.649Z,976.20
2018-03-27T11:48:18.619Z,976.08
2018-03-27T11:49:18.554Z,976.14
2018-03-27T11:50:18.416Z,976.17
2018-03-27T11:51:18.345Z,976.17
2018-03-27T11:52:18.270Z,976.15
2018-03-27T11:53:18.200Z,976.16
2018-03-27T11:54:18.124Z,976.02
2018-03-27T11:55:18.054Z,976.09
2018-03-27T11:56:17.981Z,976.05
2018-03-27T11:57:17.932Z,976.06
2018-03-27T11:58:17.841Z,976.04
2018-03-27T11:59:17.769Z,976.03
2018-03-27T12:00:17.698Z,976.03
2018-03-27T12:01:17.629Z,975.98
2018-03-27T12:02:17.562Z,975.99
2018-03-27T12:03:17.493Z,975.99
2018-03-27T12:04:17.426Z,975.96
2018-03-27T12:05:17.358Z,975.95
2018-03-27T12:06:17.299Z,975.90
2018-03-27T12:07:17.228Z,975.91
2018-03-27T12:08:17.161Z,975.88
2018-03-27T12:09:17.101Z,975.86
2018-03-27T12:10:17.030Z,975.89
2018-03-27T12:11:16.967Z,975.94
2018-03-27T12:12:16.905Z,975.90
2018-03-27T12:13:16.838Z,975.85
2018-03-27T12:14:16.778Z,975.71
2018-03-27T12:15:16.754Z,975.70
2018-03-27T12:16:16.650Z,975.58
2018-03-27T12:17:16.588Z,975.60
2018-03-27T12:18:16.522Z,975.64
2018-03-27T12:19:16.460Z,975.53
2018-03-27T12:20:16.395Z,975.60
2018-03-27T12:21:16.330Z,975.59
2018-03-27T12:22:16.263Z,975.62
2018-03-27T12:23:16.206Z,975.60
2018-03-27T12:24:16.134Z,975.53
2018-03-27T12:25:16.068Z,975.64
2018-03-27T12:26:16.006Z,975.58
2018-03-27T12:27:15.933Z,975.65
2018-03-27T12:28:15.867Z,975.64
2018-03-27T12:29:15.801Z,975.65
2018-03-27T12:30:15.730Z,975.63
2018-03-27T12:31:15.661Z,975.60
2018-03-27T12:32:15.590Z,975.64
2018-03-27T12:33:15.523Z,975.70
2018-03-27T12:34:15.451Z,975.61
2018-03-27T12:35:15.383Z,975.61